Time;durP1;ratioP1;P1;durP2;ratioP2;P2;SDS_P1;SDS_P2;PMS_P1;PMS_P2;Temp;Humidity;BMP_temperature;BMP_pressure;BME280_temperature;BME280_humidity;BME280_pressure;Samples;Min_cycle;Max_cycle;Signal;HPM_P1;HPM_P2
2023/10/17 00:01:49;;;;;;;8.53;6.10;;;6.80;99.90;;;;;;4994400;28;20419;-71
2023/10/17 00:06:44;;;;;;;12.63;6.90;;;6.80;99.90;;;;;;5012184;28;20831;-70
2023/10/17 00:09:09;;;;;;;9.67;7.13;;;6.70;99.90;;;;;;4994495;28;20441;-70
2023/10/17 00:14:23;;;;;;;10.53;6.47;;;6.70;99.90;;;;;;5012078;28;20160;-70
2023/10/17 00:16:57;;;;;;;11.23;8.27;;;6.70;99.90;;;;;;4993963;28;20961;-70
2023/10/17 00:19:28;;;;;;;11.87;8.27;;;6.70;99.90;;;;;;5011879;28;20414;-70
2023/10/17 00:21:53;;;;;;;11.37;7.53;;;6.70;99.90;;;;;;4994387;28;20414;-70
2023/10/17 00:24:19;;;;;;;7.90;6.97;;;6.70;99.90;;;;;;5011836;28;20450;-70
2023/10/17 00:26:47;;;;;;;11.00;7.77;;;6.70;99.90;;;;;;4994023;28;20216;-70
2023/10/17 00:29:13;;;;;;;11.40;8.37;;;6.60;99.90;;;;;;5010633;28;20191;-70
2023/10/17 00:31:40;;;;;;;8.10;6.47;;;6.60;99.90;;;;;;4994198;28;20948;-70
2023/10/17 00:34:40;;;;;;;9.33;6.20;;;6.50;99.90;;;;;;5012177;28;20411;-70
2023/10/17 00:37:06;;;;;;;9.83;6.57;;;6.50;99.90;;;;;;5013330;28;21008;-70
2023/10/17 00:39:32;;;;;;;8.00;6.90;;;6.40;99.90;;;;;;4997966;28;20497;-71
2023/10/17 00:44:40;;;;;;;9.97;7.00;;;6.40;99.90;;;;;;5015731;28;20482;-71
2023/10/17 00:47:18;;;;;;;16.10;7.50;;;6.40;99.90;;;;;;4997591;28;20991;-70
2023/10/17 00:49:45;;;;;;;10.00;6.17;;;6.40;99.90;;;;;;5015038;28;20481;-70
2023/10/17 00:52:32;;;;;;;8.70;6.50;;;6.30;99.90;;;;;;5015335;28;20403;-70
2023/10/17 00:54:59;;;;;;;7.83;6.43;;;6.30;99.90;;;;;;5015395;28;20483;-70
2023/10/17 00:57:26;;;;;;;10.10;5.20;;;6.30;99.90;;;;;;5013939;28;20521;-71
2023/10/17 00:59:53;;;;;;;9.30;5.97;;;6.30;99.90;;;;;;4997633;28;20934;-70
2023/10/17 01:02:24;;;;;;;8.07;6.30;;;6.20;99.90;;;;;;5015191;28;20465;-70
2023/10/17 01:04:56;;;;;;;7.10;5.70;;;6.20;99.90;;;;;;5013900;28;20542;-71
2023/10/17 01:07:31;;;;;;;10.13;6.33;;;6.30;99.90;;;;;;5013334;28;20423;-71
2023/10/17 01:10:10;;;;;;;12.83;7.10;;;6.30;99.90;;;;;;4997379;28;20442;-71
2023/10/17 01:12:41;;;;;;;7.13;5.40;;;6.30;99.90;;;;;;5015030;28;20428;-70
2023/10/17 01:15:06;;;;;;;9.13;7.00;;;6.30;99.90;;;;;;5013772;28;20419;-70
2023/10/17 01:17:35;;;;;;;8.73;5.70;;;6.40;99.90;;;;;;5014894;28;20533;-70
2023/10/17 01:20:08;;;;;;;11.07;5.90;;;6.40;99.90;;;;;;4997035;28;20422;-70
2023/10/17 01:22:41;;;;;;;7.37;5.53;;;6.50;99.90;;;;;;5014816;28;20489;-71
2023/10/17 01:25:19;;;;;;;8.63;6.70;;;6.50;99.90;;;;;;4997168;28;20995;-70
2023/10/17 01:27:44;;;;;;;7.67;5.77;;;6.60;99.90;;;;;;4996924;28;20826;-71
2023/10/17 01:30:11;;;;;;;6.63;5.50;;;6.60;99.90;;;;;;4997105;28;20404;-71
2023/10/17 01:32:36;;;;;;;6.20;4.40;;;6.60;99.90;;;;;;4997165;28;20238;-70
2023/10/17 01:35:02;;;;;;;8.00;5.83;;;6.70;99.90;;;;;;4997097;28;20415;-70
2023/10/17 01:37:28;;;;;;;7.43;5.57;;;6.70;99.90;;;;;;5014207;28;20213;-71
2023/10/17 01:39:53;;;;;;;6.10;5.50;;;6.70;99.90;;;;;;5014403;28;20415;-70
2023/10/17 01:42:20;;;;;;;6.07;4.10;;;6.70;99.90;;;;;;5013258;28;20588;-70
2023/10/17 01:44:45;;;;;;;8.70;6.30;;;6.80;99.90;;;;;;5014146;28;20590;-70
2023/10/17 01:47:11;;;;;;;7.73;5.00;;;6.80;99.90;;;;;;4996117;28;20438;-70
2023/10/17 01:49:36;;;;;;;7.17;5.80;;;6.90;99.90;;;;;;5014086;28;20658;-70
2023/10/17 01:52:03;;;;;;;8.30;6.40;;;6.90;99.90;;;;;;5014291;28;20635;-70
2023/10/17 01:54:29;;;;;;;6.60;4.87;;;6.90;99.90;;;;;;5014208;28;20221;-71
2023/10/17 01:57:05;;;;;;;6.53;5.53;;;7.00;99.90;;;;;;5014055;28;20485;-70
2023/10/17 01:59:32;;;;;;;7.03;5.47;;;7.00;99.90;;;;;;4996325;28;20434;-70
2023/10/17 02:01:59;;;;;;;6.20;5.27;;;7.00;99.90;;;;;;5012843;28;20413;-70
2023/10/17 02:04:25;;;;;;;10.63;5.33;;;7.00;99.90;;;;;;5014062;28;20459;-71
2023/10/17 02:06:51;;;;;;;7.00;4.53;;;7.00;99.90;;;;;;5013894;28;20787;-70
2023/10/17 02:09:24;;;;;;;10.90;5.37;;;7.00;99.90;;;;;;4996300;28;20172;-70
2023/10/17 02:11:54;;;;;;;8.67;5.60;;;7.00;99.90;;;;;;5013813;28;20400;-70
2023/10/17 02:14:20;;;;;;;9.87;5.70;;;7.00;99.90;;;;;;5013842;28;20409;-71
2023/10/17 02:16:46;;;;;;;9.33;4.87;;;7.00;99.90;;;;;;4996176;28;20431;-70
2023/10/17 02:19:11;;;;;;;9.20;5.20;;;7.00;99.90;;;;;;5012259;28;20458;-71
2023/10/17 02:21:40;;;;;;;7.40;5.17;;;7.00;99.90;;;;;;5013997;28;20169;-71
2023/10/17 02:24:08;;;;;;;5.03;4.53;;;7.00;99.90;;;;;;5013715;28;20211;-70
2023/10/17 02:26:42;;;;;;;6.50;4.40;;;7.00;99.90;;;;;;4996018;28;20487;-70
2023/10/17 02:29:11;;;;;;;10.17;7.60;;;7.00;99.90;;;;;;4995956;28;20795;-70
2023/10/17 02:31:38;;;;;;;8.73;5.97;;;7.00;99.90;;;;;;5013445;28;20403;-70
2023/10/17 02:34:04;;;;;;;8.40;5.90;;;7.00;99.90;;;;;;5013574;28;20399;-70
2023/10/17 02:36:29;;;;;;;5.73;5.13;;;7.00;99.90;;;;;;4995714;28;20818;-70
2023/10/17 02:38:55;;;;;;;6.33;5.10;;;7.10;99.90;;;;;;5013297;28;20247;-70
2023/10/17 02:41:22;;;;;;;11.80;5.20;;;7.10;99.90;;;;;;4996167;28;20639;-71
2023/10/17 02:43:55;;;;;;;6.20;4.70;;;7.00;99.90;;;;;;4995627;28;20411;-70
2023/10/17 02:46:26;;;;;;;5.37;4.40;;;7.00;99.90;;;;;;5013169;28;20802;-71
2023/10/17 02:48:53;;;;;;;7.90;4.90;;;7.00;99.90;;;;;;4995665;28;20418;-70
2023/10/17 02:53:52;;;;;;;9.87;5.33;;;7.10;99.90;;;;;;5013289;28;20950;-71
2023/10/17 02:56:20;;;;;;;8.70;5.57;;;7.10;99.90;;;;;;5013055;28;20486;-70
2023/10/17 02:59:09;;;;;;;5.93;4.97;;;7.10;99.90;;;;;;4994306;28;20532;-71
2023/10/17 03:01:37;;;;;;;5.80;5.17;;;7.10;99.90;;;;;;5012831;28;20450;-71
2023/10/17 03:04:08;;;;;;;7.77;5.30;;;7.10;99.90;;;;;;5012900;28;20426;-71
2023/10/17 03:06:35;;;;;;;9.67;5.90;;;7.10;99.90;;;;;;4995625;28;20461;-70
2023/10/17 03:09:01;;;;;;;7.33;5.03;;;7.10;99.90;;;;;;5012976;28;20906;-71
2023/10/17 03:11:35;;;;;;;7.47;4.47;;;7.10;99.90;;;;;;4995302;28;20414;-70
2023/10/17 03:14:10;;;;;;;7.53;4.23;;;7.20;99.90;;;;;;4995544;28;20402;-71
2023/10/17 03:16:40;;;;;;;9.37;4.87;;;7.20;99.90;;;;;;5013057;28;20427;-70
2023/10/17 03:19:06;;;;;;;5.77;4.70;;;7.20;99.90;;;;;;4995181;28;21351;-70
2023/10/17 03:21:34;;;;;;;5.13;4.03;;;7.20;99.90;;;;;;5012760;28;20431;-70
2023/10/17 03:24:04;;;;;;;9.13;5.73;;;7.20;99.90;;;;;;4994629;28;20181;-70
2023/10/17 03:26:39;;;;;;;17.40;7.00;;;7.20;99.90;;;;;;5010939;28;20427;-70
2023/10/17 03:29:13;;;;;;;8.77;5.87;;;7.20;99.90;;;;;;4994905;28;20414;-71
2023/10/17 03:31:41;;;;;;;7.97;5.37;;;7.20;99.90;;;;;;5012503;28;20817;-70
2023/10/17 03:34:07;;;;;;;5.77;4.90;;;7.20;99.90;;;;;;4995020;28;20414;-71
2023/10/17 03:36:42;;;;;;;6.33;4.70;;;7.20;99.90;;;;;;5012215;28;20447;-70
2023/10/17 03:39:20;;;;;;;5.47;4.60;;;7.20;99.90;;;;;;5011063;28;20226;-71
2023/10/17 03:41:46;;;;;;;4.87;4.10;;;7.20;99.90;;;;;;5012383;28;20775;-71
2023/10/17 03:44:15;;;;;;;6.47;4.20;;;7.20;99.90;;;;;;5012292;28;20455;-70
2023/10/17 03:46:46;;;;;;;8.13;4.30;;;7.20;99.90;;;;;;5010859;28;20438;-70
2023/10/17 03:49:18;;;;;;;5.97;4.20;;;7.20;99.90;;;;;;5010856;28;20415;-70
2023/10/17 03:51:51;;;;;;;6.63;4.60;;;7.20;99.90;;;;;;5011048;28;20451;-70
2023/10/17 03:54:22;;;;;;;9.87;4.97;;;7.10;99.90;;;;;;4994788;28;20506;-71
2023/10/17 03:57:02;;;;;;;5.20;4.70;;;7.10;99.90;;;;;;4994356;28;20534;-70
2023/10/17 03:59:41;;;;;;;5.40;4.47;;;7.10;99.90;;;;;;4994370;28;20431;-70
2023/10/17 04:02:18;;;;;;;5.00;3.63;;;7.10;99.90;;;;;;4994921;28;20504;-70
2023/10/17 04:04:53;;;;;;;5.70;4.47;;;7.10;99.90;;;;;;5012077;28;20460;-70
2023/10/17 04:07:31;;;;;;;6.47;4.43;;;7.10;99.90;;;;;;4994455;28;20435;-70
2023/10/17 04:12:48;;;;;;;7.13;4.50;;;7.10;99.90;;;;;;5018747;28;20921;-71
2023/10/17 04:15:18;;;;;;;6.90;4.60;;;7.10;99.90;;;;;;5018763;28;20541;-70
2023/10/17 04:17:46;;;;;;;5.90;4.70;;;7.10;99.90;;;;;;5018485;28;20553;-70
2023/10/17 04:20:12;;;;;;;8.23;4.80;;;7.10;99.90;;;;;;5000647;28;20414;-70
2023/10/17 04:22:44;;;;;;;36.43;19.70;;;7.10;99.90;;;;;;5018520;28;20910;-70
2023/10/17 04:25:20;;;;;;;30.43;15.00;;;7.10;99.90;;;;;;5018446;28;20597;-70
2023/10/17 04:27:54;;;;;;;14.27;8.70;;;7.10;99.90;;;;;;5000634;28;20441;-70
2023/10/17 04:30:22;;;;;;;7.73;5.93;;;7.10;99.90;;;;;;5018400;28;20410;-70
2023/10/17 04:32:52;;;;;;;5.87;5.27;;;7.10;99.90;;;;;;5001142;28;20415;-70
2023/10/17 04:35:21;;;;;;;5.10;4.27;;;7.10;99.90;;;;;;5000953;28;20934;-69
2023/10/17 04:38:09;;;;;;;5.10;4.33;;;7.10;99.90;;;;;;5000618;28;20464;-70
2023/10/17 04:40:42;;;;;;;5.93;4.23;;;7.10;99.90;;;;;;5017983;28;20449;-69
2023/10/17 04:45:44;;;;;;;4.50;4.10;;;7.10;99.90;;;;;;5018371;28;20457;-70
2023/10/17 04:48:17;;;;;;;6.50;3.73;;;7.10;99.90;;;;;;5017609;28;21073;-69
2023/10/17 04:50:45;;;;;;;5.00;4.13;;;7.10;99.90;;;;;;5000489;28;20419;-69
2023/10/17 04:53:28;;;;;;;4.93;3.57;;;7.10;99.90;;;;;;5000725;28;20423;-69
2023/10/17 04:56:11;;;;;;;9.03;4.63;;;7.10;99.90;;;;;;5000724;28;20419;-69
2023/10/17 05:01:34;;;;;;;5.43;3.60;;;7.10;99.90;;;;;;5018146;28;20950;-69
2023/10/17 05:03:59;;;;;;;3.87;3.57;;;7.10;99.90;;;;;;5016802;28;20793;-70
2023/10/17 05:07:06;;;;;;;5.60;4.47;;;7.10;99.90;;;;;;5016628;28;20509;-69
2023/10/17 06:17:40;;;;;;;3.60;2.97;;;7.20;99.90;;;;;;5013911;28;20510;-71
2023/10/17 06:20:11;;;;;;;3.50;2.93;;;7.30;99.90;;;;;;5012415;28;20414;-71
2023/10/17 06:28:26;;;;;;;4.50;3.37;;;7.40;99.90;;;;;;5013922;28;20402;-70
2023/10/17 06:33:37;;;;;;;7.20;3.80;;;7.50;99.90;;;;;;5013714;28;20420;-70
2023/10/17 06:36:24;;;;;;;4.47;3.40;;;7.50;99.90;;;;;;5013323;28;20462;-70
2023/10/17 06:38:50;;;;;;;6.93;5.40;;;7.60;99.90;;;;;;4995781;28;20415;-70
2023/10/17 06:41:27;;;;;;;4.53;3.57;;;7.70;99.90;;;;;;5013449;28;20490;-72
2023/10/17 06:43:58;;;;;;;6.90;3.90;;;7.70;99.90;;;;;;5013370;28;20410;-72
2023/10/17 06:46:31;;;;;;;5.13;4.20;;;7.80;99.90;;;;;;5013276;28;20466;-72
2023/10/17 06:49:05;;;;;;;4.40;3.40;;;7.80;99.90;;;;;;5013199;28;20805;-72
2023/10/17 06:51:35;;;;;;;5.10;3.37;;;7.90;99.90;;;;;;5012141;28;20461;-71
2023/10/17 06:54:07;;;;;;;7.43;3.67;;;7.90;99.90;;;;;;5012030;28;20399;-71
2023/10/17 06:56:38;;;;;;;3.87;3.30;;;8.00;99.90;;;;;;5013033;28;20427;-70
2023/10/17 06:59:06;;;;;;;3.50;3.20;;;8.10;99.90;;;;;;4995620;28;20506;-70
2023/10/17 07:01:34;;;;;;;7.40;4.27;;;8.20;99.90;;;;;;5013121;28;20400;-70
2023/10/17 07:04:02;;;;;;;5.97;3.93;;;8.30;99.90;;;;;;5013001;28;20399;-70
2023/10/17 07:06:29;;;;;;;5.60;4.33;;;8.20;99.90;;;;;;5011586;28;20441;-70
2023/10/17 07:08:54;;;;;;;4.93;3.63;;;8.30;99.90;;;;;;4995141;28;20902;-68
2023/10/17 07:13:49;;;;;;;6.27;4.10;;;8.50;99.90;;;;;;5013101;28;20199;-69
2023/10/17 07:16:16;;;;;;;5.13;3.60;;;8.60;99.90;;;;;;4995061;28;20602;-72
2023/10/17 07:18:51;;;;;;;4.63;3.67;;;8.80;99.90;;;;;;5012774;28;20921;-69
2023/10/17 07:21:23;;;;;;;3.43;2.93;;;8.90;99.90;;;;;;4995133;28;20419;-69
2023/10/17 07:23:49;;;;;;;3.77;3.00;;;9.00;99.90;;;;;;4995102;28;20422;-69
2023/10/17 07:26:24;;;;;;;3.63;2.93;;;9.10;99.90;;;;;;4994938;28;20463;-69
2023/10/17 07:28:52;;;;;;;4.80;4.07;;;9.20;99.90;;;;;;4995034;28;20456;-70
2023/10/17 07:31:20;;;;;;;5.20;3.30;;;9.30;99.90;;;;;;4994957;28;20938;-68
2023/10/17 07:33:47;;;;;;;3.97;3.50;;;9.40;99.90;;;;;;5012592;28;20497;-71
2023/10/17 07:36:15;;;;;;;3.50;3.00;;;9.50;99.90;;;;;;5011000;28;20462;-70
2023/10/17 07:38:45;;;;;;;6.40;4.23;;;9.70;99.90;;;;;;4995035;28;20519;-71
2023/10/17 07:41:13;;;;;;;4.43;3.40;;;9.80;99.90;;;;;;4994631;28;20422;-69
2023/10/17 07:43:44;;;;;;;6.13;3.97;;;9.90;99.90;;;;;;5010632;28;21138;-69
2023/10/17 07:46:17;;;;;;;4.53;3.40;;;10.10;99.90;;;;;;5012259;28;20969;-72
2023/10/17 07:48:49;;;;;;;5.00;4.27;;;10.10;99.90;;;;;;4994799;28;20785;-69
2023/10/17 07:51:15;;;;;;;3.60;3.30;;;10.20;99.90;;;;;;5011281;28;20405;-69
2023/10/17 07:53:48;;;;;;;4.07;3.23;;;10.40;99.90;;;;;;4994714;28;20411;-72
2023/10/17 07:56:21;;;;;;;3.50;3.00;;;10.50;99.90;;;;;;4994651;28;21318;-72
2023/10/17 07:58:56;;;;;;;4.53;3.50;;;10.60;99.90;;;;;;4994730;28;20916;-72
2023/10/17 08:01:31;;;;;;;8.60;4.67;;;10.70;99.90;;;;;;4994938;28;20411;-71
2023/10/17 08:03:57;;;;;;;5.37;4.50;;;10.50;99.90;;;;;;5011245;28;20422;-71
2023/10/17 08:06:28;;;;;;;3.27;2.97;;;10.50;99.90;;;;;;5015749;28;20446;-72
2023/10/17 08:08:56;;;;;;;4.40;4.00;;;10.70;99.90;;;;;;5011478;28;20411;-72
2023/10/17 08:11:28;;;;;;;5.87;4.47;;;10.90;99.90;;;;;;5012168;28;20418;-72
2023/10/17 08:13:56;;;;;;;5.90;4.50;;;11.00;99.90;;;;;;4994568;28;20485;-71
2023/10/17 08:16:24;;;;;;;4.20;2.97;;;11.20;99.90;;;;;;4994359;28;20493;-72
2023/10/17 08:18:58;;;;;;;4.00;3.57;;;11.40;99.90;;;;;;4994391;28;20407;-70
2023/10/17 08:24:00;;;;;;;6.40;3.50;;;11.60;99.90;;;;;;5011981;28;20944;-72
2023/10/17 08:26:29;;;;;;;4.50;3.70;;;11.80;99.90;;;;;;5011819;28;20458;-72
2023/10/17 08:28:56;;;;;;;3.10;2.90;;;11.90;99.90;;;;;;4994190;28;20917;-72
2023/10/17 08:31:44;;;;;;;5.17;3.00;;;11.90;99.90;;;;;;5011946;28;20886;-70
2023/10/17 08:34:12;;;;;;;5.00;3.60;;;11.80;99.90;;;;;;5011428;28;20483;-70
2023/10/17 08:39:26;;;;;;;4.37;2.50;;;11.80;99.90;;;;;;5011667;28;20391;-70
2023/10/17 08:42:05;;;;;;;3.80;3.20;;;11.90;99.90;;;;;;4994340;28;20410;-70
2023/10/17 08:44:34;;;;;;;3.70;3.33;;;12.00;99.90;;;;;;4994123;28;20458;-70
2023/10/17 08:47:04;;;;;;;5.30;3.40;;;12.00;99.90;;;;;;4993986;28;20439;-70
2023/10/17 08:49:31;;;;;;;2.87;2.60;;;12.00;99.90;;;;;;4994048;28;20505;-70
2023/10/17 08:51:57;;;;;;;10.00;4.47;;;12.20;99.90;;;;;;4994215;28;20419;-70
2023/10/17 08:54:30;;;;;;;4.30;3.73;;;12.40;99.90;;;;;;4994026;28;20514;-70
2023/10/17 08:57:03;;;;;;;3.97;2.70;;;12.60;99.90;;;;;;5012994;28;20946;-70
2023/10/17 09:05:25;;;;;;;3.83;2.10;;;13.20;99.90;;;;;;5015290;28;20454;-70
2023/10/17 09:07:55;;;;;;;4.87;2.57;;;13.40;99.90;;;;;;5013888;28;20450;-71
2023/10/17 09:10:40;;;;;;;2.60;2.40;;;13.80;99.90;;;;;;5013832;28;20554;-70
2023/10/17 09:15:59;;;;;;;3.60;2.57;;;14.20;99.90;;;;;;5015166;28;20407;-70
2023/10/17 09:18:27;;;;;;;5.30;2.43;;;14.30;99.90;;;;;;5013696;28;20418;-70
2023/10/17 09:20:56;;;;;;;2.00;1.90;;;14.50;99.90;;;;;;5014931;28;20419;-72
2023/10/17 09:23:24;;;;;;;2.23;2.03;;;14.90;99.90;;;;;;4997390;28;20496;-69
2023/10/17 09:26:07;;;;;;;2.70;1.50;;;15.20;99.90;;;;;;4997281;28;20462;-69
2023/10/17 09:28:33;;;;;;;2.20;2.03;;;15.80;99.90;;;;;;5014608;28;20434;-68
2023/10/17 09:31:02;;;;;;;1.80;1.30;;;16.40;99.90;;;;;;4997148;28;20876;-69
2023/10/17 09:33:32;;;;;;;2.73;2.40;;;17.20;99.90;;;;;;5014715;28;20418;-70
2023/10/17 09:35:59;;;;;;;2.43;1.90;;;17.80;99.90;;;;;;4996847;28;20439;-71
2023/10/17 09:38:27;;;;;;;1.90;1.70;;;17.80;92.90;;;;;;5014665;28;20419;-70
2023/10/17 09:41:05;;;;;;;2.33;1.50;;;17.80;91.80;;;;;;5014370;28;20522;-70
2023/10/17 09:43:31;;;;;;;1.83;1.57;;;18.20;91.00;;;;;;5014686;28;20418;-70
2023/10/17 09:46:09;;;;;;;4.47;1.83;;;19.40;93.40;;;;;;5014554;28;20455;-70
2023/10/17 09:48:36;;;;;;;3.83;1.37;;;21.10;75.10;;;;;;5014493;28;20164;-70
2023/10/17 09:51:03;;;;;;;2.90;1.67;;;22.00;58.60;;;;;;5014287;28;20419;-70
2023/10/17 09:53:34;;;;;;;2.20;1.50;;;22.60;55.80;;;;;;5014186;28;20482;-70
2023/10/17 09:56:27;;;;;;;1.70;1.60;;;22.50;47.60;;;;;;5014737;28;20431;-71
2023/10/17 09:58:56;;;;;;;2.57;1.60;;;22.30;46.50;;;;;;5014258;28;20403;-70
2023/10/17 10:01:29;;;;;;;2.13;1.57;;;21.90;47.30;;;;;;4996685;28;20953;-70
2023/10/17 10:03:56;;;;;;;1.57;1.43;;;22.00;50.20;;;;;;5014283;28;20418;-71
2023/10/17 10:06:32;;;;;;;2.70;1.67;;;22.40;49.90;;;;;;5013430;28;20933;-70
2023/10/17 10:09:01;;;;;;;1.47;1.20;;;24.10;50.80;;;;;;4996369;28;20414;-72
2023/10/17 10:11:48;;;;;;;1.20;1.10;;;26.90;46.50;;;;;;5014143;28;20408;-70
2023/10/17 10:14:36;;;;;;;2.70;1.93;;;30.10;41.20;;;;;;5014014;28;20457;-73
2023/10/17 10:17:03;;;;;;;1.53;1.40;;;33.10;37.40;;;;;;5013922;28;20481;-67
2023/10/17 10:19:41;;;;;;;3.00;1.20;;;35.20;28.80;;;;;;4996171;28;20419;-69
2023/10/17 10:22:08;;;;;;;2.20;1.63;;;36.60;27.10;;;;;;5013912;28;20766;-68
2023/10/17 10:24:36;;;;;;;1.70;1.60;;;37.60;24.50;;;;;;5012417;28;20469;-69
2023/10/17 10:27:14;;;;;;;3.30;2.10;;;38.00;21.40;;;;;;5013746;28;20439;-68
2023/10/17 10:29:43;;;;;;;10.10;2.37;;;38.00;22.20;;;;;;5013478;28;20913;-69
2023/10/17 10:32:29;;;;;;;2.00;1.80;;;37.90;22.10;;;;;;5013525;28;20410;-69
2023/10/17 10:34:54;;;;;;;3.03;1.67;;;37.80;20.70;;;;;;5013541;28;20399;-72
2023/10/17 10:37:20;;;;;;;2.10;1.90;;;38.50;22.00;;;;;;5013274;28;20509;-70
2023/10/17 10:40:16;;;;;;;3.00;2.10;;;39.20;20.00;;;;;;5013335;28;20171;-70
2023/10/17 10:43:11;;;;;;;1.87;1.77;;;39.30;19.70;;;;;;5013466;28;20395;-69
2023/10/17 10:45:50;;;;;;;1.87;1.43;;;40.00;19.50;;;;;;5011481;28;20473;-69
2023/10/17 10:48:17;;;;;;;2.77;1.37;;;40.80;19.00;;;;;;5013182;28;20409;-72
2023/10/17 10:50:55;;;;;;;2.37;1.80;;;41.70;19.40;;;;;;5013061;28;20446;-71
2023/10/17 10:53:21;;;;;;;1.93;1.70;;;42.30;18.90;;;;;;4995600;28;20422;-72
2023/10/17 10:55:57;;;;;;;1.47;1.37;;;43.30;18.80;;;;;;5012995;28;20411;-72
2023/10/17 10:58:26;;;;;;;2.40;2.20;;;44.10;18.70;;;;;;5013332;28;20480;-72
2023/10/17 11:00:54;;;;;;;1.80;1.70;;;44.00;17.20;;;;;;4995132;28;21026;-70
2023/10/17 11:03:21;;;;;;;2.07;1.90;;;44.50;17.40;;;;;;5012718;28;20411;-70
2023/10/17 11:06:03;;;;;;;2.93;2.03;;;45.10;17.60;;;;;;5012796;28;20463;-70
2023/10/17 11:08:48;;;;;;;1.87;1.77;;;45.00;16.20;;;;;;5012884;28;20748;-70
2023/10/17 11:11:14;;;;;;;2.13;2.00;;;45.10;16.20;;;;;;5012647;28;20773;-70
2023/10/17 11:13:48;;;;;;;7.23;1.80;;;45.70;16.90;;;;;;5012777;28;20486;-69
2023/10/17 11:16:19;;;;;;;1.90;1.80;;;44.60;14.40;;;;;;5012667;28;20414;-69
2023/10/17 11:18:45;;;;;;;1.53;1.43;;;44.60;15.70;;;;;;5011977;28;20458;-69
2023/10/17 11:21:12;;;;;;;2.00;1.80;;;43.30;14.50;;;;;;5012704;28;20898;-68
2023/10/17 11:23:52;;;;;;;2.20;1.40;;;42.80;15.60;;;;;;5012753;28;20171;-68
2023/10/17 11:26:25;;;;;;;2.40;1.77;;;43.20;16.10;;;;;;5012537;28;20459;-68
2023/10/17 11:28:52;;;;;;;1.80;1.50;;;43.00;15.20;;;;;;5011432;28;20456;-69
2023/10/17 11:31:21;;;;;;;1.73;1.63;;;43.80;16.30;;;;;;5012746;28;20780;-69
2023/10/17 11:34:06;;;;;;;1.53;1.43;;;44.70;15.90;;;;;;5011514;28;20416;-69
2023/10/17 11:36:46;;;;;;;1.80;1.50;;;45.50;16.10;;;;;;5012456;28;20442;-69
2023/10/17 11:39:15;;;;;;;1.90;1.70;;;46.30;15.20;;;;;;5012468;28;20411;-70
2023/10/17 11:41:55;;;;;;;1.87;1.77;;;46.80;14.90;;;;;;5012626;28;20834;-70
2023/10/17 11:44:25;;;;;;;1.83;1.73;;;47.00;14.80;;;;;;5012565;28;20358;-70
2023/10/17 11:47:03;;;;;;;1.77;1.67;;;45.90;13.30;;;;;;5012286;28;20825;-70
2023/10/17 11:49:35;;;;;;;1.83;1.47;;;45.20;14.00;;;;;;5012008;28;20474;-70
2023/10/17 11:52:10;;;;;;;1.70;1.60;;;44.40;13.80;;;;;;5012302;28;20820;-70
2023/10/17 11:55:00;;;;;;;3.63;3.30;;;44.90;14.90;;;;;;4994999;28;20415;-70
2023/10/17 11:57:31;;;;;;;2.30;1.70;;;45.20;15.50;;;;;;4994562;28;20441;-71
2023/10/17 12:00:19;;;;;;;1.70;1.60;;;46.20;15.50;;;;;;5012134;28;20749;-71
2023/10/17 12:02:48;;;;;;;2.00;1.50;;;47.00;14.20;;;;;;5012141;28;20459;-71
2023/10/17 12:05:18;;;;;;;1.80;1.70;;;47.90;15.00;;;;;;5012333;28;20469;-70
2023/10/17 12:07:53;;;;;;;1.80;1.67;;;48.40;13.70;;;;;;5012100;28;20515;-72
2023/10/17 12:10:19;;;;;;;1.50;1.40;;;47.50;13.60;;;;;;5011973;28;20391;-70
2023/10/17 12:12:45;;;;;;;2.70;1.90;;;47.70;14.00;;;;;;4994481;28;20407;-71
2023/10/17 12:15:13;;;;;;;2.00;1.90;;;48.20;14.20;;;;;;4994389;28;20974;-71
2023/10/17 12:17:43;;;;;;;1.90;1.80;;;48.30;13.10;;;;;;5011952;28;20188;-70
2023/10/17 12:20:13;;;;;;;2.07;1.87;;;47.20;13.20;;;;;;5011838;28;20404;-70
2023/10/17 12:22:39;;;;;;;2.13;1.93;;;46.70;12.70;;;;;;5011990;28;20797;-70
2023/10/17 12:25:06;;;;;;;1.93;1.57;;;46.90;14.10;;;;;;5012018;28;20787;-68
2023/10/17 12:27:31;;;;;;;1.80;1.70;;;47.40;14.40;;;;;;5011850;28;20439;-68
2023/10/17 12:29:57;;;;;;;1.60;1.50;;;47.80;13.20;;;;;;5013333;28;20470;-69
2023/10/17 12:32:23;;;;;;;1.80;1.70;;;48.30;13.90;;;;;;5015838;28;20259;-69
2023/10/17 12:34:49;;;;;;;2.70;1.73;;;48.70;14.10;;;;;;5014759;28;20169;-70
2023/10/17 12:37:17;;;;;;;1.97;1.70;;;49.00;14.10;;;;;;5014711;28;20218;-69
2023/10/17 12:39:43;;;;;;;2.50;1.70;;;48.90;13.40;;;;;;5015898;28;20422;-70
2023/10/17 12:42:09;;;;;;;1.87;1.77;;;48.20;12.30;;;;;;5015871;28;20411;-71
2023/10/17 12:44:35;;;;;;;1.67;1.57;;;48.00;12.90;;;;;;5015963;28;20414;-70
2023/10/17 12:47:01;;;;;;;2.07;1.97;;;48.00;13.20;;;;;;5015713;28;20396;-70
2023/10/17 12:49:27;;;;;;;3.03;2.53;;;47.60;12.90;;;;;;5015765;28;20784;-70
2023/10/17 12:51:53;;;;;;;2.40;2.20;;;47.00;12.10;;;;;;5015719;28;20167;-70
2023/10/17 12:54:18;;;;;;;2.03;1.90;;;46.40;12.40;;;;;;5015827;28;20441;-68
2023/10/17 12:56:44;;;;;;;2.47;2.30;;;45.70;12.00;;;;;;5015701;28;20186;-68
2023/10/17 12:59:12;;;;;;;4.70;1.67;;;45.40;13.30;;;;;;4998021;28;20176;-68
2023/10/17 13:01:39;;;;;;;1.70;1.60;;;45.20;12.90;;;;;;4998203;28;20657;-68
2023/10/17 13:04:04;;;;;;;1.80;1.70;;;45.50;13.30;;;;;;5014549;28;20403;-68
2023/10/17 13:06:30;;;;;;;1.70;1.60;;;45.40;12.90;;;;;;5014304;28;20433;-68
2023/10/17 13:08:59;;;;;;;1.57;1.47;;;45.20;13.10;;;;;;5015335;28;20165;-68
2023/10/17 13:11:25;;;;;;;1.70;1.47;;;45.10;13.30;;;;;;5015518;28;20164;-68
2023/10/17 13:13:50;;;;;;;1.70;1.60;;;45.00;12.90;;;;;;4997969;28;20486;-69
2023/10/17 13:16:16;;;;;;;1.73;1.60;;;44.90;13.00;;;;;;5014213;28;20942;-68
2023/10/17 13:18:41;;;;;;;1.70;1.60;;;44.80;12.90;;;;;;5015386;28;20218;-69
2023/10/17 13:21:13;;;;;;;2.00;1.80;;;44.50;12.90;;;;;;5013828;28;20230;-69
2023/10/17 13:23:39;;;;;;;3.13;1.93;;;44.00;13.00;;;;;;5014028;28;20160;-68
2023/10/17 13:26:12;;;;;;;1.77;1.67;;;43.70;12.70;;;;;;5014896;28;20458;-68
2023/10/17 13:28:38;;;;;;;2.53;1.53;;;42.80;12.40;;;;;;5014989;28;20462;-71
2023/10/17 13:31:10;;;;;;;1.60;1.50;;;41.50;12.60;;;;;;5014814;28;20403;-69
2023/10/17 13:33:38;;;;;;;1.50;1.40;;;40.90;13.70;;;;;;5014947;28;20525;-68
2023/10/17 13:36:07;;;;;;;1.20;1.10;;;41.10;14.60;;;;;;5014722;28;20537;-69
2023/10/17 13:38:33;;;;;;;1.63;1.53;;;41.60;15.20;;;;;;4997254;28;20782;-68
2023/10/17 13:41:11;;;;;;;1.63;1.50;;;41.70;14.30;;;;;;5014094;28;20437;-69
2023/10/17 13:43:38;;;;;;;1.50;1.40;;;41.60;13.90;;;;;;5014905;28;20226;-68
2023/10/17 13:46:08;;;;;;;2.37;1.67;;;41.40;14.20;;;;;;5014520;28;20809;-71
2023/10/17 13:48:34;;;;;;;2.10;1.53;;;41.70;14.70;;;;;;5014215;28;20478;-68
2023/10/17 13:51:06;;;;;;;1.53;1.37;;;41.90;14.30;;;;;;4996671;28;20522;-68
2023/10/17 13:53:31;;;;;;;3.20;1.90;;;42.20;14.90;;;;;;5014632;28;20407;-68
2023/10/17 13:55:57;;;;;;;2.00;1.50;;;42.30;14.30;;;;;;5014715;28;20761;-68
2023/10/17 13:58:22;;;;;;;1.80;1.70;;;42.20;14.30;;;;;;5014327;28;20173;-69
2023/10/17 14:00:54;;;;;;;1.60;1.50;;;41.10;13.40;;;;;;5014241;28;20176;-70
2023/10/17 14:03:22;;;;;;;1.87;1.77;;;40.30;14.10;;;;;;5014247;28;20701;-68
2023/10/17 14:05:48;;;;;;;1.60;1.50;;;39.50;14.60;;;;;;5014210;28;20503;-68
2023/10/17 14:08:14;;;;;;;1.50;1.40;;;38.80;15.10;;;;;;5014159;28;20991;-68
2023/10/17 14:10:43;;;;;;;1.77;1.67;;;38.30;15.40;;;;;;5013990;28;20906;-68
2023/10/17 14:13:12;;;;;;;1.53;1.43;;;37.90;15.40;;;;;;5013759;28;20490;-70
2023/10/17 14:15:39;;;;;;;5.33;1.83;;;37.10;15.60;;;;;;5014088;28;20408;-68
2023/10/17 14:18:14;;;;;;;1.40;1.30;;;36.10;15.50;;;;;;5013768;28;20470;-71
2023/10/17 14:23:26;;;;;;;2.50;1.30;;;35.00;16.80;;;;;;5014148;28;20442;-68
2023/10/17 14:26:09;;;;;;;3.30;1.40;;;34.10;16.70;;;;;;5012349;28;20985;-70
2023/10/17 14:28:35;;;;;;;1.43;1.20;;;33.20;17.60;;;;;;5013985;28;20407;-69
2023/10/17 14:31:03;;;;;;;1.93;1.40;;;32.70;17.90;;;;;;5012675;28;20434;-68
2023/10/17 14:33:32;;;;;;;2.97;1.30;;;32.60;18.60;;;;;;5013704;28;20726;-68
2023/10/17 14:36:01;;;;;;;1.30;1.07;;;32.50;18.30;;;;;;5013574;28;20510;-67
2023/10/17 14:38:26;;;;;;;3.00;1.27;;;32.20;18.80;;;;;;5013795;28;20476;-69
2023/10/17 14:40:52;;;;;;;1.23;1.13;;;32.20;19.20;;;;;;5013355;28;20945;-68
2023/10/17 14:43:17;;;;;;;1.60;1.50;;;31.20;18.50;;;;;;5012307;28;20643;-68
2023/10/17 14:45:44;;;;;;;1.77;1.57;;;31.00;19.60;;;;;;4995790;28;20213;-71
2023/10/17 14:48:13;;;;;;;1.50;1.37;;;31.00;19.80;;;;;;5013554;28;20640;-67
2023/10/17 14:50:39;;;;;;;1.53;1.20;;;30.80;19.80;;;;;;4995725;28;20418;-69
2023/10/17 14:53:06;;;;;;;1.30;1.20;;;30.60;19.90;;;;;;5013314;28;20399;-71
2023/10/17 14:55:32;;;;;;;1.80;1.27;;;30.50;20.30;;;;;;4995705;28;20435;-67
2023/10/17 14:57:57;;;;;;;1.60;1.27;;;30.40;20.20;;;;;;4995646;28;20957;-68
2023/10/17 15:00:23;;;;;;;1.10;1.00;;;30.40;20.40;;;;;;5013136;28;20247;-69
2023/10/17 15:02:50;;;;;;;1.33;1.23;;;30.30;20.30;;;;;;5013280;28;20554;-71